Terminal Aerodrome Forecast
Issued by NWS

Home | Current Version | Previous Version | Text Only | Print | Product List | Glossary Off
Versions: 1 2 3 4 5 6 7 8 9 10 11 12 13 14 15 16 17 18 19 20 21 22 23 24 25 26 27 28 29 30 31 32 33

000
FTUS43 KLOT 231730
TAFMDW
TAF
KMDW 231730Z 2318/2418 04013G17KT P6SM FEW008 BKN015
     FM232200 04013G20KT P6SM VCSH BKN025 OVC080
      TEMPO 2322/2401 -SHRA
     FM240100 05014G21KT 5SM -SHRA BR OVC008
     FM240400 06015G22KT 3SM SHRA BR OVC005 PROB30 2405/2410 2SM
      TSRA OVC008CB
     FM241000 05012KT 2SM -RADZ BR VCSH OVC004
     FM241600 07004KT 5SM BR VCSH BKN006=

USA.gov is the U.S. government's official web portal to all federal, state and local government web resources and services.